createdAt,value
2022-08-05T00:00:54.927Z,55.20
2022-08-05T00:03:21.507Z,55.10
2022-08-05T00:06:05.446Z,55.20
2022-08-05T00:08:36.160Z,55.20
2022-08-05T00:11:02.960Z,55.20
2022-08-05T00:13:38.194Z,55.20
2022-08-05T00:16:05.199Z,55.20
2022-08-05T00:18:35.018Z,55.20
2022-08-05T00:21:01.559Z,55.20
2022-08-05T00:23:44.617Z,55.20
2022-08-05T00:26:13.063Z,55.10
2022-08-05T00:28:39.712Z,55.20
2022-08-05T00:31:07.648Z,55.20
2022-08-05T00:34:56.203Z,55.20
2022-08-05T00:37:10.959Z,55.20
2022-08-05T00:39:07.403Z,55.20
2022-08-05T00:41:51.622Z,55.20
2022-08-05T00:44:21.900Z,55.20
2022-08-05T00:46:54.311Z,55.30
2022-08-05T00:49:32.750Z,55.20
2022-08-05T00:51:59.556Z,55.20
2022-08-05T00:54:28.051Z,55.30
2022-08-05T00:56:56.572Z,55.30
2022-08-05T00:59:23.093Z,55.30
2022-08-05T01:01:49.678Z,55.20
2022-08-05T01:04:20.159Z,55.20
2022-08-05T01:06:53.410Z,55.20
2022-08-05T01:09:21.534Z,55.30
2022-08-05T01:11:49.204Z,55.30
2022-08-05T01:14:15.828Z,55.30
2022-08-05T01:16:44.134Z,55.30
2022-08-05T01:19:10.939Z,55.30
2022-08-05T01:21:40.811Z,55.30
2022-08-05T01:24:14.200Z,55.30
2022-08-05T01:26:41.076Z,55.30
2022-08-05T01:29:07.593Z,55.20
2022-08-05T01:31:42.757Z,55.30
2022-08-05T01:34:11.795Z,55.20
2022-08-05T01:36:42.287Z,55.30
2022-08-05T01:39:13.693Z,55.30
2022-08-05T01:41:40.290Z,55.10
2022-08-05T01:44:11.165Z,55.10
2022-08-05T01:46:41.896Z,55.10
2022-08-05T01:49:23.330Z,55.10
2022-08-05T01:51:51.962Z,55.10
2022-08-05T01:54:18.565Z,55.10
2022-08-05T01:58:09.563Z,55.00
2022-08-05T01:59:38.548Z,55.10
2022-08-05T02:02:05.154Z,55.10
2022-08-05T02:04:37.406Z,55.10
2022-08-05T02:07:07.155Z,55.10
2022-08-05T02:09:33.671Z,55.10
2022-08-05T02:12:02.136Z,55.00
2022-08-05T02:14:28.716Z,55.10
2022-08-05T02:16:58.483Z,55.10
2022-08-05T02:19:25.218Z,55.10
2022-08-05T02:21:53.850Z,55.10
2022-08-05T02:24:23.093Z,55.10
2022-08-05T02:26:51.822Z,55.10
2022-08-05T02:29:24.265Z,55.10
2022-08-05T02:31:52.835Z,55.20
2022-08-05T02:34:22.588Z,55.10
2022-08-05T02:36:49.410Z,55.10
2022-08-05T02:39:16.026Z,55.10
2022-08-05T02:42:00.613Z,55.10
2022-08-05T02:44:27.954Z,55.00
2022-08-05T02:47:00.165Z,55.10
2022-08-05T02:49:27.111Z,55.00
2022-08-05T02:52:04.630Z,55.00
2022-08-05T02:54:36.414Z,55.00
2022-08-05T02:57:05.087Z,55.10
2022-08-05T02:59:48.097Z,55.00
2022-08-05T03:02:17.293Z,55.00
2022-08-05T03:04:44.215Z,55.00
2022-08-05T03:07:24.607Z,55.00
2022-08-05T03:09:57.227Z,55.00
2022-08-05T03:12:23.747Z,55.00
2022-08-05T03:14:50.258Z,55.00
2022-08-05T03:17:16.762Z,55.00
2022-08-05T03:19:45.524Z,54.90
2022-08-05T03:22:16.380Z,54.90
2022-08-05T03:24:47.227Z,55.00
2022-08-05T03:27:17.390Z,55.00
2022-08-05T03:29:45.635Z,55.00
2022-08-05T03:32:30.881Z,55.10
2022-08-05T03:34:57.923Z,55.10
2022-08-05T03:37:24.572Z,55.10
2022-08-05T03:39:58.509Z,55.10
2022-08-05T03:42:27.214Z,55.10
2022-08-05T03:44:55.768Z,55.10
2022-08-05T03:47:23.872Z,55.10
2022-08-05T03:49:51.669Z,55.20
2022-08-05T03:52:38.511Z,55.30
2022-08-05T03:56:05.325Z,55.20
2022-08-05T03:57:51.809Z,55.10
2022-08-05T04:00:19.600Z,55.20
2022-08-05T04:02:57.519Z,55.30
2022-08-05T04:05:24.819Z,55.20
2022-08-05T04:07:58.589Z,55.20
2022-08-05T04:10:25.494Z,55.30
2022-08-05T04:12:54.530Z,55.20
2022-08-05T04:15:21.370Z,55.30
2022-08-05T04:17:56.160Z,55.20
2022-08-05T04:20:24.069Z,55.20
2022-08-05T04:22:50.601Z,55.20
2022-08-05T04:25:17.150Z,55.30
2022-08-05T04:27:57.490Z,55.30
2022-08-05T04:30:26.433Z,55.30
2022-08-05T04:32:53.179Z,55.10
2022-08-05T04:35:20.069Z,55.20
2022-08-05T04:38:02.797Z,55.20
2022-08-05T04:40:33.208Z,55.30
2022-08-05T04:42:59.715Z,55.30
2022-08-05T04:45:48.434Z,55.30
2022-08-05T04:48:18.615Z,55.30
2022-08-05T04:51:03.288Z,55.20
2022-08-05T04:53:38.647Z,55.30
2022-08-05T04:56:33.807Z,55.40
2022-08-05T04:58:51.977Z,55.40
2022-08-05T05:02:05.532Z,55.30
2022-08-05T05:04:05.575Z,55.40
2022-08-05T05:06:35.997Z,55.50
2022-08-05T05:09:10.592Z,55.40
2022-08-05T05:11:48.505Z,55.40
2022-08-05T05:14:31.365Z,55.50
2022-08-05T05:16:58.645Z,55.40
2022-08-05T05:19:27.361Z,55.50
2022-08-05T05:22:03.565Z,55.50
2022-08-05T05:24:58.637Z,55.60
2022-08-05T05:27:44.793Z,55.40
2022-08-05T05:30:28.770Z,55.50
2022-08-05T05:32:57.296Z,55.50
2022-08-05T05:35:27.637Z,55.50
2022-08-05T05:37:59.557Z,55.50
2022-08-05T05:40:27.196Z,55.60
2022-08-05T05:42:54.655Z,55.60
2022-08-05T05:45:22.871Z,55.70
2022-08-05T05:48:06.534Z,55.70
2022-08-05T05:50:33.968Z,55.70
2022-08-05T05:53:00.682Z,55.60
2022-08-05T05:55:52.163Z,55.70
2022-08-05T05:58:13.754Z,55.70
2022-08-05T06:00:40.804Z,55.70
2022-08-05T06:03:40.719Z,55.70
2022-08-05T06:05:59.028Z,55.70
2022-08-05T06:08:32.574Z,55.70
2022-08-05T06:10:59.351Z,55.70
2022-08-05T06:13:26.832Z,55.60
2022-08-05T06:16:30.696Z,55.70
2022-08-05T06:18:39.903Z,55.70
2022-08-05T06:21:07.943Z,55.70
2022-08-05T06:23:44.153Z,55.70
2022-08-05T06:26:13.723Z,55.70
2022-08-05T06:28:47.677Z,55.80
2022-08-05T06:31:17.866Z,55.80
2022-08-05T06:34:07.983Z,55.70
2022-08-05T06:36:37.357Z,55.80
2022-08-05T06:39:17.935Z,55.80
2022-08-05T06:41:48.354Z,55.70
2022-08-05T06:44:15.147Z,55.60
2022-08-05T06:46:41.950Z,55.70
2022-08-05T06:49:09.092Z,55.80
2022-08-05T06:51:40.780Z,55.90
2022-08-05T06:54:07.481Z,55.90
2022-08-05T06:56:35.211Z,56.00
2022-08-05T06:59:01.859Z,55.90
2022-08-05T07:01:32.279Z,56.00
2022-08-05T07:03:59.437Z,55.90
2022-08-05T07:06:27.731Z,56.00
2022-08-05T07:08:55.212Z,55.90
2022-08-05T07:11:22.208Z,55.90
2022-08-05T07:13:57.864Z,55.80
2022-08-05T07:18:00.691Z,55.90
2022-08-05T07:19:16.082Z,56.00
2022-08-05T07:22:01.314Z,56.00
2022-08-05T07:24:29.994Z,56.10
2022-08-05T07:26:56.559Z,56.10
2022-08-05T07:29:25.526Z,56.00
2022-08-05T07:32:09.590Z,56.00
2022-08-05T07:34:40.486Z,56.10
2022-08-05T07:37:11.607Z,56.10
2022-08-05T07:40:04.770Z,56.00
2022-08-05T07:42:33.384Z,56.00
2022-08-05T07:45:00.494Z,56.10
2022-08-05T07:47:27.062Z,56.10
2022-08-05T07:50:06.914Z,56.00
2022-08-05T07:52:33.623Z,56.00
2022-08-05T07:55:00.457Z,56.10
2022-08-05T07:57:52.216Z,56.10
2022-08-05T08:00:13.487Z,56.10
2022-08-05T08:03:15.088Z,56.20
2022-08-05T08:05:27.586Z,56.10
2022-08-05T08:07:59.975Z,56.10
2022-08-05T08:10:27.098Z,56.10
2022-08-05T08:12:53.628Z,56.00
2022-08-05T08:15:37.201Z,56.10
2022-08-05T08:18:09.901Z,56.10
2022-08-05T08:20:43.759Z,56.10
2022-08-05T08:24:02.311Z,56.00
2022-08-05T08:26:00.503Z,56.10
2022-08-05T08:28:37.138Z,56.00
2022-08-05T08:31:08.983Z,56.10
2022-08-05T08:33:37.415Z,56.00
2022-08-05T08:36:38.852Z,55.90
2022-08-05T08:38:53.205Z,56.00
2022-08-05T08:41:20.078Z,56.00
2022-08-05T08:45:21.319Z,56.10
2022-08-05T08:46:39.043Z,56.00
2022-08-05T08:50:04.045Z,56.10
2022-08-05T08:52:05.804Z,56.00
2022-08-05T08:54:38.996Z,56.00
2022-08-05T08:57:11.369Z,56.00
2022-08-05T08:59:38.172Z,56.00
2022-08-05T09:02:08.450Z,56.00
2022-08-05T09:04:35.351Z,55.90
2022-08-05T09:07:28.454Z,55.90
2022-08-05T09:09:55.774Z,56.00
2022-08-05T09:12:27.302Z,56.00
2022-08-05T09:15:04.055Z,56.00
2022-08-05T09:17:42.358Z,56.00
2022-08-05T09:20:09.888Z,56.00
2022-08-05T09:22:36.573Z,56.10
2022-08-05T09:25:13.711Z,56.00
2022-08-05T09:28:05.094Z,56.00
2022-08-05T09:30:32.840Z,55.90
2022-08-05T09:32:59.586Z,55.90
2022-08-05T09:35:27.077Z,55.90
2022-08-05T09:38:17.691Z,55.80
2022-08-05T09:40:40.571Z,55.80
2022-08-05T09:43:19.300Z,55.80
2022-08-05T09:46:06.465Z,55.70
2022-08-05T09:48:33.157Z,55.80
2022-08-05T09:51:00.232Z,55.90
2022-08-05T09:53:53.410Z,55.70
2022-08-05T09:56:13.663Z,55.60
2022-08-05T09:58:41.959Z,55.60
2022-08-05T10:01:14.696Z,55.80
2022-08-05T10:03:59.215Z,55.80
2022-08-05T10:06:26.215Z,55.70
2022-08-05T10:08:55.540Z,55.70
2022-08-05T10:11:22.825Z,55.70
2022-08-05T10:13:49.513Z,55.70
2022-08-05T10:16:21.340Z,55.60
2022-08-05T10:18:48.188Z,55.70
2022-08-05T10:21:15.705Z,55.70
2022-08-05T10:23:59.251Z,55.60
2022-08-05T10:26:32.298Z,55.70
2022-08-05T10:29:00.476Z,55.60
2022-08-05T10:33:02.200Z,55.50
2022-08-05T10:34:13.645Z,55.50
2022-08-05T10:36:40.847Z,55.50
2022-08-05T10:39:10.504Z,55.50
2022-08-05T10:41:46.995Z,55.40
2022-08-05T10:44:13.788Z,55.40
2022-08-05T10:46:42.410Z,55.30
2022-08-05T10:49:10.604Z,56.00
2022-08-05T10:51:48.670Z,55.30
2022-08-05T10:54:29.983Z,55.30
2022-08-05T10:57:00.302Z,55.30
2022-08-05T11:00:04.150Z,55.30
2022-08-05T11:02:14.286Z,55.30
2022-08-05T11:05:00.142Z,55.20
2022-08-05T11:07:33.175Z,55.20
2022-08-05T11:10:13.395Z,55.00
2022-08-05T11:12:41.299Z,55.00
2022-08-05T11:15:19.810Z,55.00
2022-08-05T11:18:07.473Z,55.10
2022-08-05T11:20:33.666Z,54.90
2022-08-05T11:23:05.804Z,54.90
2022-08-05T11:26:05.144Z,54.80
2022-08-05T11:28:22.384Z,54.80
2022-08-05T11:30:53.337Z,54.80
2022-08-05T11:33:21.466Z,54.80
2022-08-05T11:36:07.681Z,54.80
2022-08-05T11:38:37.323Z,54.70
2022-08-05T11:41:34.679Z,54.70
2022-08-05T11:44:06.070Z,54.50
2022-08-05T11:46:34.252Z,54.60
2022-08-05T11:49:01.509Z,54.60
2022-08-05T11:51:43.798Z,54.60
2022-08-05T11:54:14.656Z,54.50
2022-08-05T11:56:41.403Z,54.50
2022-08-05T11:59:13.796Z,54.50
2022-08-05T12:01:40.536Z,54.50
2022-08-05T12:04:07.065Z,54.50
2022-08-05T12:06:33.590Z,54.50
2022-08-05T12:09:01.169Z,54.40
2022-08-05T12:11:39.760Z,54.10
2022-08-05T12:14:07.181Z,54.30
2022-08-05T12:16:33.766Z,54.10
2022-08-05T12:19:05.100Z,54.10
2022-08-05T12:21:39.177Z,54.10
2022-08-05T12:24:06.715Z,54.10
2022-08-05T12:26:33.914Z,54.10
2022-08-05T12:29:01.492Z,54.00
2022-08-05T12:31:42.402Z,54.10
2022-08-05T12:34:20.654Z,54.00
2022-08-05T12:36:48.194Z,54.00
2022-08-05T12:39:14.775Z,54.00
2022-08-05T12:41:43.591Z,54.00
2022-08-05T12:44:11.538Z,54.10
2022-08-05T12:46:40.848Z,54.10
2022-08-05T12:49:13.424Z,54.10
2022-08-05T12:52:12.687Z,54.10
2022-08-05T12:54:26.990Z,54.10
2022-08-05T12:56:53.560Z,54.10
2022-08-05T12:59:21.022Z,54.10
2022-08-05T13:02:00.102Z,54.10
2022-08-05T13:04:32.881Z,54.10
2022-08-05T13:06:59.685Z,54.10
2022-08-05T13:09:28.065Z,54.20
2022-08-05T13:12:01.953Z,54.00
2022-08-05T13:14:36.630Z,54.00
2022-08-05T13:17:03.329Z,54.00
2022-08-05T13:19:50.975Z,54.00
2022-08-05T13:22:29.366Z,54.00
2022-08-05T13:24:57.890Z,54.10
2022-08-05T13:27:37.740Z,54.20
2022-08-05T13:30:34.451Z,54.10
2022-08-05T13:32:51.484Z,54.10
2022-08-05T13:35:22.275Z,54.10
2022-08-05T13:38:06.036Z,54.10
2022-08-05T13:40:51.939Z,54.10
2022-08-05T13:43:22.015Z,54.10
2022-08-05T13:45:48.867Z,54.10
2022-08-05T13:48:57.308Z,54.00
2022-08-05T13:51:03.949Z,54.10
2022-08-05T13:53:31.153Z,54.10
2022-08-05T13:56:01.970Z,54.10
2022-08-05T13:58:30.836Z,54.10
2022-08-05T14:00:57.721Z,54.10
2022-08-05T14:03:24.369Z,54.10
2022-08-05T14:06:26.472Z,54.10
2022-08-05T14:08:37.551Z,54.10
2022-08-05T14:11:20.237Z,54.10
2022-08-05T14:13:48.529Z,54.00
2022-08-05T14:16:22.807Z,54.00
2022-08-05T14:18:50.095Z,54.00
2022-08-05T14:22:08.415Z,54.00
2022-08-05T14:24:04.777Z,53.90
2022-08-05T14:26:38.382Z,53.80
2022-08-05T14:29:16.567Z,53.70
2022-08-05T14:31:54.285Z,53.70
2022-08-05T14:34:30.155Z,53.60
2022-08-05T14:37:02.275Z,53.60
2022-08-05T14:39:29.304Z,53.80
2022-08-05T14:42:19.141Z,53.80
2022-08-05T14:44:42.409Z,53.70
2022-08-05T14:47:09.499Z,53.60
2022-08-05T14:49:59.541Z,53.50
2022-08-05T14:52:50.468Z,53.50
2022-08-05T14:55:09.110Z,53.40
2022-08-05T14:57:54.046Z,52.90
2022-08-05T15:00:28.026Z,53.10
2022-08-05T15:02:56.039Z,53.30
2022-08-05T15:05:30.010Z,53.30
2022-08-05T15:08:16.006Z,53.10
2022-08-05T15:10:46.089Z,53.10
2022-08-05T15:13:13.278Z,53.20
2022-08-05T15:15:54.494Z,53.00
2022-08-05T15:18:22.870Z,53.30
2022-08-05T15:20:49.664Z,53.30
2022-08-05T15:23:17.503Z,53.40
2022-08-05T15:25:52.225Z,51.30
2022-08-05T15:28:21.736Z,52.40
2022-08-05T15:30:54.055Z,51.00
2022-08-05T15:33:56.961Z,51.10
2022-08-05T15:36:16.900Z,51.80
2022-08-05T15:38:50.560Z,51.70
2022-08-05T15:41:58.549Z,51.70
2022-08-05T15:44:30.360Z,51.90
2022-08-05T15:46:57.275Z,52.00
2022-08-05T15:49:41.953Z,52.20
2022-08-05T15:52:16.771Z,52.10
2022-08-05T15:54:56.816Z,51.90
2022-08-05T15:57:23.581Z,51.60
2022-08-05T15:59:54.007Z,51.40
2022-08-05T16:02:25.479Z,51.30
2022-08-05T16:04:54.129Z,51.10
2022-08-05T16:07:20.657Z,51.30
2022-08-05T16:09:49.506Z,51.20
2022-08-05T16:12:16.056Z,51.00
2022-08-05T16:14:42.583Z,51.30
2022-08-05T16:17:09.948Z,51.30
2022-08-05T16:20:04.168Z,51.30
2022-08-05T16:22:27.541Z,51.40
2022-08-05T16:25:00.703Z,51.30
2022-08-05T16:28:00.220Z,51.30
2022-08-05T16:30:25.523Z,51.30
2022-08-05T16:32:53.322Z,51.40
2022-08-05T16:35:19.841Z,51.50
2022-08-05T16:38:15.022Z,51.40
2022-08-05T16:40:41.294Z,50.90
2022-08-05T16:43:07.879Z,51.10
2022-08-05T16:46:07.387Z,51.00
2022-08-05T16:48:25.591Z,50.40
2022-08-05T16:50:59.648Z,50.80
2022-08-05T16:54:02.141Z,49.80
2022-08-05T16:56:13.157Z,50.30
2022-08-05T16:58:40.119Z,49.80
2022-08-05T17:01:09.326Z,50.30
2022-08-05T17:03:37.044Z,50.60
2022-08-05T17:06:03.578Z,50.60
2022-08-05T17:08:36.685Z,50.50
2022-08-05T17:11:17.513Z,50.20
2022-08-05T17:13:44.066Z,50.30
2022-08-05T17:16:29.863Z,50.20
2022-08-05T17:18:57.124Z,50.10
2022-08-05T17:21:23.934Z,50.30
2022-08-05T17:24:03.742Z,50.20
2022-08-05T17:26:34.754Z,50.10
2022-08-05T17:29:04.175Z,50.20
2022-08-05T17:31:57.268Z,50.00
2022-08-05T17:34:17.878Z,49.90
2022-08-05T17:36:44.692Z,50.00
2022-08-05T17:39:24.538Z,49.90
2022-08-05T17:42:19.821Z,49.60
2022-08-05T17:44:50.387Z,49.50
2022-08-05T17:47:17.796Z,49.60
2022-08-05T17:50:04.328Z,49.30
2022-08-05T17:52:52.585Z,48.20
2022-08-05T17:55:19.471Z,47.80
2022-08-05T17:57:48.731Z,48.50
2022-08-05T18:00:16.926Z,48.40
2022-08-05T18:02:43.456Z,48.40
2022-08-05T18:05:10.087Z,48.20
2022-08-05T18:07:41.445Z,48.30
2022-08-05T18:10:10.411Z,48.70
2022-08-05T18:12:37.442Z,49.00
2022-08-05T18:15:04.035Z,49.10
2022-08-05T18:18:00.313Z,49.10
2022-08-05T18:20:17.866Z,49.00
2022-08-05T18:22:54.775Z,49.10
2022-08-05T18:25:23.771Z,48.90
2022-08-05T18:27:52.611Z,48.90
2022-08-05T18:30:19.312Z,48.80
2022-08-05T18:32:53.386Z,49.40
2022-08-05T18:35:59.899Z,48.80
2022-08-05T18:38:16.471Z,48.70
2022-08-05T18:41:56.163Z,48.60
2022-08-05T18:43:38.103Z,48.60
2022-08-05T18:46:04.945Z,48.50
2022-08-05T18:48:33.229Z,48.50
2022-08-05T18:51:49.572Z,48.40
2022-08-05T18:53:50.514Z,48.50
2022-08-05T18:56:17.213Z,48.50
2022-08-05T18:58:48.363Z,48.40
2022-08-05T19:01:18.212Z,48.50
2022-08-05T19:03:52.966Z,48.40
2022-08-05T19:06:34.384Z,48.50
2022-08-05T19:09:08.845Z,48.50
2022-08-05T19:11:37.078Z,48.50
2022-08-05T19:14:59.105Z,48.40
2022-08-05T19:17:08.430Z,48.40
2022-08-05T19:19:34.996Z,48.30
2022-08-05T19:22:01.729Z,48.20
2022-08-05T19:24:34.451Z,48.20
2022-08-05T19:27:04.054Z,48.00
2022-08-05T19:29:35.938Z,48.20
2022-08-05T19:32:03.083Z,48.20
2022-08-05T19:34:31.012Z,48.10
2022-08-05T19:36:57.549Z,48.30
2022-08-05T19:39:24.119Z,48.40
2022-08-05T19:42:07.102Z,48.70
2022-08-05T19:44:44.505Z,48.40
2022-08-05T19:47:11.963Z,48.40
2022-08-05T19:49:41.911Z,48.40
2022-08-05T19:52:30.694Z,48.40
2022-08-05T19:54:55.116Z,48.70
2022-08-05T19:57:47.498Z,48.40
2022-08-05T20:00:08.346Z,48.60
2022-08-05T20:02:35.958Z,48.50
2022-08-05T20:05:04.857Z,48.30
2022-08-05T20:07:47.008Z,48.20
2022-08-05T20:10:15.036Z,48.30
2022-08-05T20:12:48.384Z,48.30
2022-08-05T20:15:15.886Z,48.40
2022-08-05T20:18:02.410Z,48.50
2022-08-05T20:20:29.809Z,48.40
2022-08-05T20:22:56.322Z,48.30
2022-08-05T20:25:24.980Z,48.30
2022-08-05T20:28:00.417Z,48.50
2022-08-05T20:30:28.013Z,48.30
2022-08-05T20:32:54.540Z,48.30
2022-08-05T20:35:21.083Z,48.20
2022-08-05T20:38:06.256Z,48.20
2022-08-05T20:40:34.704Z,48.70
2022-08-05T20:43:01.240Z,48.20
2022-08-05T20:45:56.150Z,48.20
2022-08-05T20:48:16.678Z,48.20
2022-08-05T20:50:45.541Z,48.10
2022-08-05T20:53:16.328Z,47.90
2022-08-05T20:56:09.111Z,48.00
2022-08-05T20:58:36.147Z,48.00
2022-08-05T21:01:03.685Z,48.00
2022-08-05T21:03:30.622Z,48.00
2022-08-05T21:06:01.287Z,48.10
2022-08-05T21:08:32.957Z,48.00
2022-08-05T21:11:09.201Z,48.00
2022-08-05T21:13:56.103Z,47.80
2022-08-05T21:16:23.416Z,47.80
2022-08-05T21:18:56.795Z,47.90
2022-08-05T21:21:26.722Z,47.90
2022-08-05T21:24:06.445Z,47.90
2022-08-05T21:26:33.793Z,47.80
2022-08-05T21:29:03.623Z,47.70
2022-08-05T21:31:41.639Z,47.60
2022-08-05T21:34:08.343Z,47.60
2022-08-05T21:36:37.194Z,47.60
2022-08-05T21:39:03.802Z,47.60
2022-08-05T21:41:35.537Z,47.60
2022-08-05T21:44:04.430Z,47.60
2022-08-05T21:46:31.500Z,47.60
2022-08-05T21:49:00.882Z,47.60
2022-08-05T21:52:16.658Z,47.60
2022-08-05T21:54:13.942Z,47.70
2022-08-05T21:56:44.647Z,47.70
2022-08-05T21:59:22.509Z,47.60
2022-08-05T22:01:50.680Z,47.60
2022-08-05T22:04:20.911Z,47.50
2022-08-05T22:06:52.025Z,47.50
2022-08-05T22:09:21.471Z,47.30
2022-08-05T22:11:48.298Z,47.30
2022-08-05T22:14:33.491Z,47.30
2022-08-05T22:17:04.980Z,47.40
2022-08-05T22:19:57.266Z,47.40
2022-08-05T22:22:26.613Z,47.30
2022-08-05T22:24:59.160Z,47.20
2022-08-05T22:27:25.681Z,47.30
2022-08-05T22:30:12.213Z,47.30
2022-08-05T22:32:39.971Z,47.30
2022-08-05T22:35:11.145Z,47.20
2022-08-05T22:37:59.353Z,47.10
2022-08-05T22:40:24.624Z,47.10
2022-08-05T22:42:57.761Z,47.10
2022-08-05T22:45:24.651Z,47.10
2022-08-05T22:47:55.317Z,47.10
2022-08-05T22:50:27.796Z,47.10
2022-08-05T22:52:54.515Z,47.20
2022-08-05T22:55:21.387Z,47.10
2022-08-05T22:57:49.122Z,47.10
2022-08-05T23:00:18.281Z,47.00
2022-08-05T23:02:47.647Z,46.80
2022-08-05T23:05:14.889Z,47.00
2022-08-05T23:07:48.379Z,46.80
2022-08-05T23:10:16.155Z,46.90
2022-08-05T23:12:46.267Z,46.80
2022-08-05T23:15:12.805Z,46.90
2022-08-05T23:18:01.025Z,46.90
2022-08-05T23:20:27.708Z,46.80
2022-08-05T23:22:56.280Z,46.80
2022-08-05T23:25:53.687Z,46.80
2022-08-05T23:28:09.628Z,46.70
2022-08-05T23:30:40.338Z,46.80
2022-08-05T23:33:16.310Z,46.70
2022-08-05T23:35:55.907Z,46.70
2022-08-05T23:38:22.812Z,46.70
2022-08-05T23:40:50.698Z,46.70
2022-08-05T23:43:25.350Z,46.60
2022-08-05T23:46:04.057Z,46.60
2022-08-05T23:48:30.594Z,46.60
2022-08-05T23:50:57.159Z,46.60
2022-08-05T23:53:28.515Z,46.60
2022-08-05T23:56:11.731Z,46.50
2022-08-05T23:58:38.475Z,46.60
